sensor_id;sensor_type;location;lat;lon;timestamp;P1;durP1;ratioP1;P2;durP2;ratioP2
14890;SDS011;7537;48.014;11.590;2023-07-16T00:00:39;4.87;;;4.08;;
14890;SDS011;7537;48.014;11.590;2023-07-16T00:06:06;3.56;;;3.63;;
14890;SDS011;7537;48.014;11.590;2023-07-16T00:11:34;8.06;;;4.62;;
14890;SDS011;7537;48.014;11.590;2023-07-16T00:17:03;7.13;;;4.68;;
14890;SDS011;7537;48.014;11.590;2023-07-16T00:22:30;4.72;;;4.22;;
14890;SDS011;7537;48.014;11.590;2023-07-16T00:27:58;5.14;;;4.07;;
14890;SDS011;7537;48.014;11.590;2023-07-16T00:33:25;5.51;;;4.77;;
14890;SDS011;7537;48.014;11.590;2023-07-16T00:38:53;5.03;;;4.29;;
14890;SDS011;7537;48.014;11.590;2023-07-16T00:44:24;5.07;;;4.42;;
14890;SDS011;7537;48.014;11.590;2023-07-16T00:49:57;5.32;;;4.56;;
14890;SDS011;7537;48.014;11.590;2023-07-16T00:55:25;5.74;;;4.94;;
14890;SDS011;7537;48.014;11.590;2023-07-16T01:00:53;4.78;;;3.83;;
14890;SDS011;7537;48.014;11.590;2023-07-16T01:06:22;5.48;;;4.53;;
14890;SDS011;7537;48.014;11.590;2023-07-16T01:11:52;4.86;;;4.81;;
14890;SDS011;7537;48.014;11.590;2023-07-16T01:17:20;6.34;;;4.56;;
14890;SDS011;7537;48.014;11.590;2023-07-16T01:23:01;5.47;;;5.02;;
14890;SDS011;7537;48.014;11.590;2023-07-16T01:28:38;4.08;;;4.16;;
14890;SDS011;7537;48.014;11.590;2023-07-16T01:34:11;9.16;;;5.53;;
14890;SDS011;7537;48.014;11.590;2023-07-16T01:39:40;3.93;;;4.11;;
14890;SDS011;7537;48.014;11.590;2023-07-16T01:45:09;6.49;;;5.06;;
14890;SDS011;7537;48.014;11.590;2023-07-16T01:50:46;5.93;;;5.36;;
14890;SDS011;7537;48.014;11.590;2023-07-16T01:56:13;6.26;;;4.81;;
14890;SDS011;7537;48.014;11.590;2023-07-16T02:01:41;5.31;;;5.06;;
14890;SDS011;7537;48.014;11.590;2023-07-16T02:07:10;4.50;;;4.57;;
14890;SDS011;7537;48.014;11.590;2023-07-16T02:12:37;5.27;;;4.84;;
14890;SDS011;7537;48.014;11.590;2023-07-16T02:18:05;4.94;;;5.06;;
14890;SDS011;7537;48.014;11.590;2023-07-16T02:23:33;6.13;;;4.61;;
14890;SDS011;7537;48.014;11.590;2023-07-16T02:29:01;7.34;;;5.30;;
14890;SDS011;7537;48.014;11.590;2023-07-16T02:34:31;5.39;;;5.29;;
14890;SDS011;7537;48.014;11.590;2023-07-16T02:39:59;5.22;;;5.10;;
14890;SDS011;7537;48.014;11.590;2023-07-16T02:45:26;5.24;;;4.97;;
14890;SDS011;7537;48.014;11.590;2023-07-16T02:51:01;5.89;;;4.76;;
14890;SDS011;7537;48.014;11.590;2023-07-16T02:56:29;5.44;;;5.51;;
14890;SDS011;7537;48.014;11.590;2023-07-16T03:01:56;6.79;;;4.95;;
14890;SDS011;7537;48.014;11.590;2023-07-16T03:07:24;6.38;;;5.24;;
14890;SDS011;7537;48.014;11.590;2023-07-16T03:13:04;4.57;;;4.68;;
14890;SDS011;7537;48.014;11.590;2023-07-16T03:18:32;6.48;;;4.66;;
14890;SDS011;7537;48.014;11.590;2023-07-16T03:24:00;4.85;;;4.57;;
14890;SDS011;7537;48.014;11.590;2023-07-16T03:29:27;4.84;;;4.89;;
14890;SDS011;7537;48.014;11.590;2023-07-16T03:34:55;6.38;;;4.97;;
14890;SDS011;7537;48.014;11.590;2023-07-16T03:40:25;4.21;;;4.31;;
14890;SDS011;7537;48.014;11.590;2023-07-16T03:45:52;5.16;;;4.14;;
14890;SDS011;7537;48.014;11.590;2023-07-16T03:51:25;3.87;;;3.90;;
14890;SDS011;7537;48.014;11.590;2023-07-16T03:56:52;4.28;;;4.16;;
14890;SDS011;7537;48.014;11.590;2023-07-16T04:02:20;11.17;;;4.21;;
14890;SDS011;7537;48.014;11.590;2023-07-16T04:07:47;3.37;;;3.52;;
14890;SDS011;7537;48.014;11.590;2023-07-16T04:13:15;3.71;;;2.93;;
14890;SDS011;7537;48.014;11.590;2023-07-16T04:18:43;6.01;;;2.76;;
14890;SDS011;7537;48.014;11.590;2023-07-16T04:24:11;3.24;;;2.65;;
14890;SDS011;7537;48.014;11.590;2023-07-16T04:29:39;2.28;;;2.26;;
14890;SDS011;7537;48.014;11.590;2023-07-16T04:35:07;4.54;;;2.32;;
14890;SDS011;7537;48.014;11.590;2023-07-16T04:40:35;2.27;;;2.27;;
14890;SDS011;7537;48.014;11.590;2023-07-16T04:46:04;1.58;;;1.48;;
14890;SDS011;7537;48.014;11.590;2023-07-16T04:51:35;2.63;;;1.78;;
14890;SDS011;7537;48.014;11.590;2023-07-16T04:57:05;1.38;;;1.46;;
14890;SDS011;7537;48.014;11.590;2023-07-16T05:02:35;1.38;;;1.22;;
14890;SDS011;7537;48.014;11.590;2023-07-16T05:08:03;1.26;;;1.27;;
14890;SDS011;7537;48.014;11.590;2023-07-16T05:13:31;1.16;;;1.22;;
14890;SDS011;7537;48.014;11.590;2023-07-16T05:18:58;3.02;;;1.16;;
14890;SDS011;7537;48.014;11.590;2023-07-16T05:24:26;1.02;;;1.14;;
14890;SDS011;7537;48.014;11.590;2023-07-16T05:29:53;0.72;;;0.81;;
14890;SDS011;7537;48.014;11.590;2023-07-16T05:35:25;0.64;;;0.71;;
14890;SDS011;7537;48.014;11.590;2023-07-16T05:40:52;2.13;;;1.20;;
14890;SDS011;7537;48.014;11.590;2023-07-16T05:46:20;1.70;;;1.31;;
14890;SDS011;7537;48.014;11.590;2023-07-16T05:52:01;2.56;;;0.73;;
14890;SDS011;7537;48.014;11.590;2023-07-16T05:57:28;1.37;;;1.37;;
14890;SDS011;7537;48.014;11.590;2023-07-16T06:02:57;2.12;;;1.71;;
14890;SDS011;7537;48.014;11.590;2023-07-16T06:08:25;2.61;;;1.63;;
14890;SDS011;7537;48.014;11.590;2023-07-16T06:13:53;2.00;;;2.09;;
14890;SDS011;7537;48.014;11.590;2023-07-16T06:19:21;2.64;;;2.55;;
14890;SDS011;7537;48.014;11.590;2023-07-16T06:24:48;6.83;;;2.89;;
14890;SDS011;7537;48.014;11.590;2023-07-16T06:30:17;3.96;;;3.50;;
14890;SDS011;7537;48.014;11.590;2023-07-16T06:35:44;3.26;;;3.20;;
14890;SDS011;7537;48.014;11.590;2023-07-16T06:41:12;3.01;;;3.12;;
14890;SDS011;7537;48.014;11.590;2023-07-16T06:46:43;2.99;;;2.92;;
14890;SDS011;7537;48.014;11.590;2023-07-16T06:52:19;3.72;;;3.19;;
14890;SDS011;7537;48.014;11.590;2023-07-16T06:57:47;2.69;;;2.75;;
14890;SDS011;7537;48.014;11.590;2023-07-16T07:03:14;2.97;;;3.01;;
14890;SDS011;7537;48.014;11.590;2023-07-16T07:08:45;2.82;;;2.87;;
14890;SDS011;7537;48.014;11.590;2023-07-16T07:14:12;3.00;;;2.63;;
14890;SDS011;7537;48.014;11.590;2023-07-16T07:19:40;3.69;;;2.88;;
14890;SDS011;7537;48.014;11.590;2023-07-16T07:25:08;2.41;;;2.41;;
14890;SDS011;7537;48.014;11.590;2023-07-16T07:30:38;2.51;;;2.44;;
14890;SDS011;7537;48.014;11.590;2023-07-16T07:36:06;1.87;;;2.01;;
14890;SDS011;7537;48.014;11.590;2023-07-16T07:41:33;2.36;;;2.38;;
14890;SDS011;7537;48.014;11.590;2023-07-16T07:47:01;2.48;;;2.27;;
14890;SDS011;7537;48.014;11.590;2023-07-16T07:52:35;2.72;;;2.49;;
14890;SDS011;7537;48.014;11.590;2023-07-16T07:58:02;2.38;;;2.35;;
14890;SDS011;7537;48.014;11.590;2023-07-16T08:03:30;2.27;;;2.34;;
14890;SDS011;7537;48.014;11.590;2023-07-16T08:08:57;2.10;;;2.23;;
14890;SDS011;7537;48.014;11.590;2023-07-16T08:14:25;2.00;;;2.14;;
14890;SDS011;7537;48.014;11.590;2023-07-16T08:19:52;1.50;;;1.56;;
14890;SDS011;7537;48.014;11.590;2023-07-16T08:25:22;2.14;;;1.51;;
14890;SDS011;7537;48.014;11.590;2023-07-16T08:30:50;2.16;;;1.62;;
14890;SDS011;7537;48.014;11.590;2023-07-16T08:36:17;1.64;;;1.76;;
14890;SDS011;7537;48.014;11.590;2023-07-16T08:41:48;1.58;;;1.68;;
14890;SDS011;7537;48.014;11.590;2023-07-16T08:47:16;1.86;;;1.74;;
14890;SDS011;7537;48.014;11.590;2023-07-16T08:52:47;1.22;;;1.39;;
14890;SDS011;7537;48.014;11.590;2023-07-16T08:58:14;1.94;;;1.61;;
14890;SDS011;7537;48.014;11.590;2023-07-16T09:03:43;2.50;;;1.63;;
14890;SDS011;7537;48.014;11.590;2023-07-16T09:09:13;1.64;;;1.72;;
14890;SDS011;7537;48.014;11.590;2023-07-16T09:14:46;4.04;;;1.52;;
14890;SDS011;7537;48.014;11.590;2023-07-16T09:20:15;1.33;;;1.30;;
14890;SDS011;7537;48.014;11.590;2023-07-16T09:25:44;1.78;;;1.53;;
14890;SDS011;7537;48.014;11.590;2023-07-16T09:31:12;1.23;;;1.29;;
14890;SDS011;7537;48.014;11.590;2023-07-16T09:36:40;1.52;;;1.61;;
14890;SDS011;7537;48.014;11.590;2023-07-16T09:42:12;1.36;;;1.36;;
14890;SDS011;7537;48.014;11.590;2023-07-16T09:47:39;2.12;;;1.45;;
14890;SDS011;7537;48.014;11.590;2023-07-16T09:53:10;1.25;;;1.33;;
14890;SDS011;7537;48.014;11.590;2023-07-16T09:58:38;1.76;;;1.59;;
14890;SDS011;7537;48.014;11.590;2023-07-16T10:04:13;2.75;;;1.49;;
14890;SDS011;7537;48.014;11.590;2023-07-16T10:09:50;1.58;;;1.37;;
14890;SDS011;7537;48.014;11.590;2023-07-16T10:15:24;1.37;;;1.46;;
14890;SDS011;7537;48.014;11.590;2023-07-16T10:20:59;1.23;;;1.37;;
14890;SDS011;7537;48.014;11.590;2023-07-16T10:26:28;1.20;;;1.22;;
14890;SDS011;7537;48.014;11.590;2023-07-16T10:31:56;1.31;;;1.36;;
14890;SDS011;7537;48.014;11.590;2023-07-16T10:37:24;1.23;;;1.37;;
14890;SDS011;7537;48.014;11.590;2023-07-16T10:42:54;1.66;;;1.73;;
14890;SDS011;7537;48.014;11.590;2023-07-16T10:48:25;1.24;;;1.23;;
14890;SDS011;7537;48.014;11.590;2023-07-16T10:53:57;1.16;;;1.24;;
14890;SDS011;7537;48.014;11.590;2023-07-16T10:59:29;1.12;;;1.25;;
14890;SDS011;7537;48.014;11.590;2023-07-16T11:04:56;1.20;;;1.29;;
14890;SDS011;7537;48.014;11.590;2023-07-16T11:10:24;1.36;;;1.41;;
14890;SDS011;7537;48.014;11.590;2023-07-16T11:15:51;1.76;;;1.83;;
14890;SDS011;7537;48.014;11.590;2023-07-16T11:21:19;2.31;;;1.52;;
14890;SDS011;7537;48.014;11.590;2023-07-16T11:26:50;1.42;;;1.44;;
14890;SDS011;7537;48.014;11.590;2023-07-16T11:32:28;1.19;;;1.34;;
14890;SDS011;7537;48.014;11.590;2023-07-16T11:37:57;1.01;;;1.13;;
14890;SDS011;7537;48.014;11.590;2023-07-16T11:43:24;1.24;;;1.29;;
14890;SDS011;7537;48.014;11.590;2023-07-16T11:48:55;1.36;;;1.24;;
14890;SDS011;7537;48.014;11.590;2023-07-16T11:54:31;1.14;;;1.20;;
14890;SDS011;7537;48.014;11.590;2023-07-16T12:00:00;1.91;;;1.93;;
14890;SDS011;7537;48.014;11.590;2023-07-16T12:05:28;1.38;;;1.47;;
14890;SDS011;7537;48.014;11.590;2023-07-16T12:10:58;1.59;;;1.74;;
14890;SDS011;7537;48.014;11.590;2023-07-16T12:16:27;1.48;;;1.55;;
14890;SDS011;7537;48.014;11.590;2023-07-16T12:21:54;1.59;;;1.66;;
14890;SDS011;7537;48.014;11.590;2023-07-16T12:27:22;1.56;;;1.62;;
14890;SDS011;7537;48.014;11.590;2023-07-16T12:32:50;2.12;;;1.98;;
14890;SDS011;7537;48.014;11.590;2023-07-16T12:38:18;1.59;;;1.73;;
14890;SDS011;7537;48.014;11.590;2023-07-16T12:43:46;3.08;;;2.55;;
14890;SDS011;7537;48.014;11.590;2023-07-16T12:49:13;1.84;;;1.91;;
14890;SDS011;7537;48.014;11.590;2023-07-16T12:54:45;2.12;;;2.26;;
14890;SDS011;7537;48.014;11.590;2023-07-16T13:00:12;2.91;;;2.44;;
14890;SDS011;7537;48.014;11.590;2023-07-16T13:05:40;2.28;;;1.72;;
14890;SDS011;7537;48.014;11.590;2023-07-16T13:11:08;1.98;;;2.11;;
14890;SDS011;7537;48.014;11.590;2023-07-16T13:16:36;1.77;;;1.83;;
14890;SDS011;7537;48.014;11.590;2023-07-16T13:22:04;2.15;;;2.31;;
14890;SDS011;7537;48.014;11.590;2023-07-16T13:27:32;1.87;;;1.97;;
14890;SDS011;7537;48.014;11.590;2023-07-16T13:32:59;2.54;;;2.28;;
14890;SDS011;7537;48.014;11.590;2023-07-16T13:38:27;3.94;;;1.81;;
14890;SDS011;7537;48.014;11.590;2023-07-16T13:43:55;1.51;;;1.60;;
14890;SDS011;7537;48.014;11.590;2023-07-16T13:49:23;2.38;;;2.01;;
14890;SDS011;7537;48.014;11.590;2023-07-16T13:54:57;1.94;;;1.97;;
14890;SDS011;7537;48.014;11.590;2023-07-16T14:00:29;1.75;;;1.68;;
14890;SDS011;7537;48.014;11.590;2023-07-16T14:05:56;1.58;;;1.66;;
14890;SDS011;7537;48.014;11.590;2023-07-16T14:11:24;2.62;;;1.78;;
14890;SDS011;7537;48.014;11.590;2023-07-16T14:16:52;2.31;;;2.01;;
14890;SDS011;7537;48.014;11.590;2023-07-16T14:22:21;8.76;;;2.41;;
14890;SDS011;7537;48.014;11.590;2023-07-16T14:27:49;1.46;;;1.58;;
14890;SDS011;7537;48.014;11.590;2023-07-16T14:33:17;1.90;;;2.05;;
14890;SDS011;7537;48.014;11.590;2023-07-16T14:38:46;2.11;;;1.59;;
14890;SDS011;7537;48.014;11.590;2023-07-16T14:44:14;2.62;;;2.26;;
14890;SDS011;7537;48.014;11.590;2023-07-16T14:49:42;2.69;;;2.86;;
14890;SDS011;7537;48.014;11.590;2023-07-16T14:55:13;2.99;;;2.32;;
14890;SDS011;7537;48.014;11.590;2023-07-16T15:01:27;2.20;;;2.27;;
14890;SDS011;7537;48.014;11.590;2023-07-16T15:06:56;2.74;;;2.18;;
14890;SDS011;7537;48.014;11.590;2023-07-16T15:12:23;2.01;;;1.91;;
14890;SDS011;7537;48.014;11.590;2023-07-16T15:17:53;2.03;;;2.12;;
14890;SDS011;7537;48.014;11.590;2023-07-16T15:23:21;2.44;;;2.61;;
14890;SDS011;7537;48.014;11.590;2023-07-16T15:28:49;1.92;;;2.02;;
14890;SDS011;7537;48.014;11.590;2023-07-16T15:34:17;2.22;;;2.36;;
14890;SDS011;7537;48.014;11.590;2023-07-16T15:39:48;3.12;;;2.65;;
14890;SDS011;7537;48.014;11.590;2023-07-16T15:45:31;2.68;;;2.49;;
14890;SDS011;7537;48.014;11.590;2023-07-16T15:50:59;1.67;;;1.79;;
14890;SDS011;7537;48.014;11.590;2023-07-16T15:56:37;1.97;;;2.04;;
14890;SDS011;7537;48.014;11.590;2023-07-16T16:02:06;2.48;;;2.33;;
14890;SDS011;7537;48.014;11.590;2023-07-16T16:07:34;3.87;;;2.72;;
14890;SDS011;7537;48.014;11.590;2023-07-16T16:13:02;2.39;;;1.98;;
14890;SDS011;7537;48.014;11.590;2023-07-16T16:18:30;2.48;;;2.51;;
14890;SDS011;7537;48.014;11.590;2023-07-16T16:23:59;2.28;;;1.94;;
14890;SDS011;7537;48.014;11.590;2023-07-16T16:29:26;2.04;;;2.17;;
14890;SDS011;7537;48.014;11.590;2023-07-16T16:34:54;1.94;;;2.01;;
14890;SDS011;7537;48.014;11.590;2023-07-16T16:40:25;3.75;;;2.64;;
14890;SDS011;7537;48.014;11.590;2023-07-16T16:45:53;2.16;;;2.23;;
14890;SDS011;7537;48.014;11.590;2023-07-16T16:51:21;2.58;;;2.50;;
14890;SDS011;7537;48.014;11.590;2023-07-16T16:56:52;3.04;;;2.50;;
14890;SDS011;7537;48.014;11.590;2023-07-16T17:02:20;2.69;;;2.12;;
14890;SDS011;7537;48.014;11.590;2023-07-16T17:07:47;3.24;;;2.07;;
14890;SDS011;7537;48.014;11.590;2023-07-16T17:13:15;1.98;;;2.10;;
14890;SDS011;7537;48.014;11.590;2023-07-16T17:18:43;2.13;;;2.18;;
14890;SDS011;7537;48.014;11.590;2023-07-16T17:24:10;3.11;;;2.23;;
14890;SDS011;7537;48.014;11.590;2023-07-16T17:29:38;1.95;;;2.04;;
14890;SDS011;7537;48.014;11.590;2023-07-16T17:35:09;1.69;;;1.81;;
14890;SDS011;7537;48.014;11.590;2023-07-16T17:40:37;2.50;;;2.61;;
14890;SDS011;7537;48.014;11.590;2023-07-16T17:46:04;2.27;;;2.34;;
14890;SDS011;7537;48.014;11.590;2023-07-16T17:51:32;1.87;;;2.01;;
14890;SDS011;7537;48.014;11.590;2023-07-16T17:57:05;3.27;;;2.04;;
14890;SDS011;7537;48.014;11.590;2023-07-16T18:02:33;2.06;;;2.19;;
14890;SDS011;7537;48.014;11.590;2023-07-16T18:08:00;2.86;;;2.58;;
14890;SDS011;7537;48.014;11.590;2023-07-16T18:13:28;2.13;;;2.29;;
14890;SDS011;7537;48.014;11.590;2023-07-16T18:18:56;2.21;;;2.02;;
14890;SDS011;7537;48.014;11.590;2023-07-16T18:24:23;2.01;;;2.08;;
14890;SDS011;7537;48.014;11.590;2023-07-16T18:29:51;2.69;;;2.78;;
14890;SDS011;7537;48.014;11.590;2023-07-16T18:35:37;2.60;;;2.06;;
14890;SDS011;7537;48.014;11.590;2023-07-16T18:41:05;3.57;;;2.30;;
14890;SDS011;7537;48.014;11.590;2023-07-16T18:46:33;3.64;;;2.79;;
14890;SDS011;7537;48.014;11.590;2023-07-16T18:52:01;6.57;;;3.55;;
14890;SDS011;7537;48.014;11.590;2023-07-16T18:57:32;3.55;;;3.08;;
14890;SDS011;7537;48.014;11.590;2023-07-16T19:03:00;3.34;;;3.32;;
14890;SDS011;7537;48.014;11.590;2023-07-16T19:08:27;2.66;;;2.81;;
14890;SDS011;7537;48.014;11.590;2023-07-16T19:13:56;2.81;;;2.81;;
14890;SDS011;7537;48.014;11.590;2023-07-16T19:19:24;3.31;;;3.47;;
14890;SDS011;7537;48.014;11.590;2023-07-16T19:24:52;3.02;;;2.68;;
14890;SDS011;7537;48.014;11.590;2023-07-16T19:30:20;11.08;;;3.17;;
14890;SDS011;7537;48.014;11.590;2023-07-16T19:35:51;3.14;;;3.03;;
14890;SDS011;7537;48.014;11.590;2023-07-16T19:41:24;4.50;;;3.87;;
14890;SDS011;7537;48.014;11.590;2023-07-16T19:46:53;3.72;;;3.43;;
14890;SDS011;7537;48.014;11.590;2023-07-16T19:52:21;4.41;;;3.94;;
14890;SDS011;7537;48.014;11.590;2023-07-16T19:57:58;3.64;;;3.37;;
14890;SDS011;7537;48.014;11.590;2023-07-16T20:03:25;2.91;;;3.05;;
14890;SDS011;7537;48.014;11.590;2023-07-16T20:08:56;4.10;;;3.81;;
14890;SDS011;7537;48.014;11.590;2023-07-16T20:14:24;3.96;;;4.04;;
14890;SDS011;7537;48.014;11.590;2023-07-16T20:19:52;3.43;;;3.53;;
14890;SDS011;7537;48.014;11.590;2023-07-16T20:25:19;3.33;;;3.42;;
14890;SDS011;7537;48.014;11.590;2023-07-16T20:30:50;5.85;;;3.42;;
14890;SDS011;7537;48.014;11.590;2023-07-16T20:36:17;4.23;;;3.24;;
14890;SDS011;7537;48.014;11.590;2023-07-16T20:41:45;4.14;;;3.75;;
14890;SDS011;7537;48.014;11.590;2023-07-16T20:47:12;3.27;;;3.37;;
14890;SDS011;7537;48.014;11.590;2023-07-16T20:52:42;4.12;;;3.80;;
14890;SDS011;7537;48.014;11.590;2023-07-16T20:58:14;9.08;;;3.33;;
14890;SDS011;7537;48.014;11.590;2023-07-16T21:03:42;3.89;;;3.45;;
14890;SDS011;7537;48.014;11.590;2023-07-16T21:09:10;4.72;;;3.31;;
14890;SDS011;7537;48.014;11.590;2023-07-16T21:14:37;4.74;;;3.74;;
14890;SDS011;7537;48.014;11.590;2023-07-16T21:20:06;4.75;;;3.13;;
14890;SDS011;7537;48.014;11.590;2023-07-16T21:25:35;5.32;;;3.53;;
14890;SDS011;7537;48.014;11.590;2023-07-16T21:31:02;3.53;;;3.62;;
14890;SDS011;7537;48.014;11.590;2023-07-16T21:36:30;4.26;;;3.29;;
14890;SDS011;7537;48.014;11.590;2023-07-16T21:41:58;4.61;;;3.88;;
14890;SDS011;7537;48.014;11.590;2023-07-16T21:47:25;4.13;;;3.53;;
14890;SDS011;7537;48.014;11.590;2023-07-16T21:52:55;5.22;;;3.69;;
14890;SDS011;7537;48.014;11.590;2023-07-16T21:58:26;3.26;;;3.31;;
14890;SDS011;7537;48.014;11.590;2023-07-16T22:03:57;3.91;;;3.29;;
14890;SDS011;7537;48.014;11.590;2023-07-16T22:09:25;3.96;;;3.89;;
14890;SDS011;7537;48.014;11.590;2023-07-16T22:14:52;2.96;;;3.08;;
14890;SDS011;7537;48.014;11.590;2023-07-16T22:20:20;3.97;;;3.99;;
14890;SDS011;7537;48.014;11.590;2023-07-16T22:25:47;4.61;;;3.30;;
14890;SDS011;7537;48.014;11.590;2023-07-16T22:31:14;3.39;;;3.54;;
14890;SDS011;7537;48.014;11.590;2023-07-16T22:36:42;3.98;;;4.06;;
14890;SDS011;7537;48.014;11.590;2023-07-16T22:42:10;3.47;;;3.53;;
14890;SDS011;7537;48.014;11.590;2023-07-16T22:47:38;3.43;;;3.46;;
14890;SDS011;7537;48.014;11.590;2023-07-16T22:53:05;4.02;;;4.04;;
14890;SDS011;7537;48.014;11.590;2023-07-16T22:58:36;3.31;;;3.44;;
14890;SDS011;7537;48.014;11.590;2023-07-16T23:04:05;3.03;;;3.18;;
14890;SDS011;7537;48.014;11.590;2023-07-16T23:09:33;3.92;;;4.04;;
14890;SDS011;7537;48.014;11.590;2023-07-16T23:15:00;3.37;;;3.48;;
14890;SDS011;7537;48.014;11.590;2023-07-16T23:20:28;5.10;;;3.74;;
14890;SDS011;7537;48.014;11.590;2023-07-16T23:25:56;4.06;;;3.88;;
14890;SDS011;7537;48.014;11.590;2023-07-16T23:31:23;4.85;;;4.14;;
14890;SDS011;7537;48.014;11.590;2023-07-16T23:36:51;3.10;;;3.27;;
14890;SDS011;7537;48.014;11.590;2023-07-16T23:42:19;2.95;;;3.03;;
14890;SDS011;7537;48.014;11.590;2023-07-16T23:47:46;3.44;;;3.26;;
14890;SDS011;7537;48.014;11.590;2023-07-16T23:53:14;3.77;;;3.89;;
14890;SDS011;7537;48.014;11.590;2023-07-16T23:58:46;3.24;;;3.24;;
